Time;durP1;ratioP1;P1;durP2;ratioP2;P2;SDS_P1;SDS_P2;PMS_P1;PMS_P2;Temp;Humidity;BMP_temperature;BMP_pressure;BME280_temperature;BME280_humidity;BME280_pressure;Samples;Min_cycle;Max_cycle;Signal;HPM_P1;HPM_P2
2021/08/13 00:02:25;;;;;;;9.30;6.30;;;19.30;99.90;;;;;;5033234;28;20488;-72
2021/08/13 00:04:51;;;;;;;7.00;6.13;;;19.30;99.90;;;;;;5029867;28;20836;-72
2021/08/13 00:07:19;;;;;;;7.23;6.57;;;19.30;99.90;;;;;;5017530;28;20481;-72
2021/08/13 00:09:46;;;;;;;7.43;5.70;;;19.20;99.90;;;;;;5010464;28;20468;-72
2021/08/13 00:12:13;;;;;;;7.40;6.33;;;19.20;99.90;;;;;;5010953;28;20453;-71
2021/08/13 00:14:40;;;;;;;7.23;6.50;;;19.20;99.90;;;;;;5010352;28;20464;-72
2021/08/13 00:17:06;;;;;;;6.57;5.97;;;19.20;99.90;;;;;;5010611;28;20899;-71
2021/08/13 00:19:33;;;;;;;6.93;6.20;;;19.20;99.90;;;;;;5010205;28;20465;-72
2021/08/13 00:22:00;;;;;;;8.10;6.60;;;19.20;99.90;;;;;;5010838;28;20485;-70
2021/08/13 00:24:28;;;;;;;7.00;6.30;;;19.10;99.90;;;;;;5047527;28;20455;-72
2021/08/13 00:26:57;;;;;;;9.23;6.73;;;19.10;99.90;;;;;;5049929;28;20487;-72
2021/08/13 00:29:24;;;;;;;7.50;6.57;;;19.10;99.90;;;;;;5042608;28;20472;-71
2021/08/13 00:31:50;;;;;;;7.30;6.63;;;19.10;99.90;;;;;;5010180;28;20465;-71
2021/08/13 00:34:17;;;;;;;6.80;6.10;;;19.10;99.90;;;;;;5010015;28;20461;-71
2021/08/13 00:36:44;;;;;;;7.53;6.30;;;19.00;99.90;;;;;;5009737;28;20488;-72
2021/08/13 00:39:10;;;;;;;8.50;6.57;;;19.00;99.90;;;;;;5009656;28;21073;-72
2021/08/13 00:41:38;;;;;;;7.97;6.30;;;19.00;99.90;;;;;;5009493;28;20489;-73
2021/08/13 00:44:06;;;;;;;7.50;6.80;;;19.00;99.90;;;;;;5009954;28;20461;-72
2021/08/13 00:46:32;;;;;;;9.87;6.83;;;19.00;99.90;;;;;;5009079;28;20728;-73
2021/08/13 00:48:59;;;;;;;8.47;7.63;;;18.90;99.90;;;;;;5009204;28;20473;-73
2021/08/13 00:51:26;;;;;;;7.53;6.73;;;18.90;99.90;;;;;;5009509;28;20450;-72
2021/08/13 00:53:53;;;;;;;7.70;6.90;;;18.90;99.90;;;;;;5009596;28;20467;-72
2021/08/13 00:56:20;;;;;;;7.37;6.60;;;18.90;99.90;;;;;;5009519;28;20495;-73
2021/08/13 00:58:49;;;;;;;7.00;6.30;;;18.80;99.90;;;;;;5009212;28;20901;-73
2021/08/13 01:01:16;;;;;;;7.47;6.60;;;18.80;99.90;;;;;;5009531;28;20478;-72
2021/08/13 01:03:43;;;;;;;8.50;6.60;;;18.80;99.90;;;;;;5009357;28;20469;-72
2021/08/13 01:06:11;;;;;;;7.10;6.40;;;18.80;99.90;;;;;;5009602;28;20492;-73
2021/08/13 01:08:38;;;;;;;8.10;7.03;;;18.80;99.90;;;;;;5008637;28;20837;-73
2021/08/13 01:11:14;;;;;;;10.13;6.70;;;18.70;99.90;;;;;;5009525;28;20480;-73
2021/08/13 01:13:50;;;;;;;8.07;6.20;;;18.70;99.90;;;;;;5009021;28;20460;-73
2021/08/13 01:16:19;;;;;;;8.77;7.53;;;18.70;99.90;;;;;;5009297;28;20484;-72
2021/08/13 01:18:52;;;;;;;7.60;6.80;;;18.70;99.90;;;;;;5008960;28;20461;-72
2021/08/13 01:21:37;;;;;;;7.13;5.70;;;18.70;99.90;;;;;;5194856;22;20483;-74
2021/08/13 01:24:08;;;;;;;7.13;6.43;;;18.60;99.90;;;;;;5028646;28;20832;-74
2021/08/13 01:26:39;;;;;;;7.83;7.10;;;18.60;99.90;;;;;;5028956;28;21026;-74
2021/08/13 01:29:18;;;;;;;7.97;7.17;;;18.60;99.90;;;;;;5028287;28;20471;-74
2021/08/13 01:31:57;;;;;;;8.17;7.20;;;18.60;99.90;;;;;;5028955;28;20460;-74
2021/08/13 01:34:25;;;;;;;10.07;6.70;;;18.60;99.90;;;;;;5029114;28;20467;-74
2021/08/13 01:36:55;;;;;;;8.80;7.30;;;18.60;99.90;;;;;;5028361;28;20891;-74
2021/08/13 01:39:23;;;;;;;7.73;6.93;;;18.50;99.90;;;;;;5027878;28;20467;-74
2021/08/13 01:41:50;;;;;;;7.03;6.33;;;18.60;99.90;;;;;;5028869;28;20492;-74
2021/08/13 01:44:18;;;;;;;7.37;6.53;;;18.50;99.90;;;;;;5028657;28;20472;-74
2021/08/13 01:46:47;;;;;;;7.60;6.90;;;18.60;99.90;;;;;;5028698;28;20473;-74
2021/08/13 01:49:18;;;;;;;8.30;7.50;;;18.50;99.90;;;;;;5027880;28;20460;-74
2021/08/13 01:51:47;;;;;;;7.33;6.57;;;18.60;99.90;;;;;;5028292;28;20460;-74
2021/08/13 01:54:15;;;;;;;7.73;7.03;;;18.60;99.90;;;;;;5028339;28;20955;-74
2021/08/13 01:56:44;;;;;;;8.47;6.70;;;18.60;99.90;;;;;;5028528;28;20484;-74
2021/08/13 01:59:11;;;;;;;7.47;6.77;;;18.60;99.90;;;;;;5030425;28;20471;-74
2021/08/13 02:01:38;;;;;;;8.97;6.73;;;18.60;99.90;;;;;;5032584;28;21065;-74
2021/08/13 02:04:06;;;;;;;7.83;7.00;;;18.60;99.90;;;;;;5032048;28;20827;-74
2021/08/13 02:06:34;;;;;;;7.33;6.63;;;18.60;99.90;;;;;;5032526;28;20516;-74
2021/08/13 02:09:03;;;;;;;7.70;6.90;;;18.60;99.90;;;;;;5031490;28;20845;-74
2021/08/13 02:11:31;;;;;;;8.10;7.30;;;18.60;99.90;;;;;;5032466;28;20460;-74
2021/08/13 02:13:58;;;;;;;7.50;6.57;;;18.60;99.90;;;;;;5032120;28;20479;-74
2021/08/13 02:16:28;;;;;;;7.77;7.00;;;18.60;99.90;;;;;;5032136;28;20491;-74
2021/08/13 02:19:00;;;;;;;8.53;7.40;;;18.60;99.90;;;;;;5031648;28;20490;-74
2021/08/13 02:21:29;;;;;;;8.40;7.60;;;18.50;99.90;;;;;;5031742;28;20488;-74
2021/08/13 02:23:56;;;;;;;7.90;7.17;;;18.50;99.90;;;;;;5032141;28;20510;-74
2021/08/13 02:26:24;;;;;;;8.07;6.90;;;18.50;99.90;;;;;;5032205;28;21027;-73
2021/08/13 02:28:51;;;;;;;7.07;6.37;;;18.50;99.90;;;;;;5031506;28;20467;-74
2021/08/13 02:31:17;;;;;;;7.70;7.00;;;18.50;99.90;;;;;;5031797;28;20464;-74
2021/08/13 02:33:44;;;;;;;12.50;7.47;;;18.50;99.90;;;;;;5031711;28;20456;-73
2021/08/13 02:36:15;;;;;;;7.63;6.83;;;18.40;99.90;;;;;;5031398;28;20538;-73
2021/08/13 02:38:51;;;;;;;8.13;7.17;;;18.40;99.90;;;;;;5031438;28;20460;-73
2021/08/13 02:41:18;;;;;;;7.80;7.07;;;18.40;99.90;;;;;;5031373;28;20472;-73
2021/08/13 02:44:00;;;;;;;8.60;7.70;;;18.40;99.90;;;;;;5032001;28;20861;-74
2021/08/13 02:46:33;;;;;;;7.40;6.70;;;18.40;99.90;;;;;;5031582;28;20817;-73
2021/08/13 02:49:01;;;;;;;8.60;7.30;;;18.40;99.90;;;;;;5030886;28;20460;-74
2021/08/13 02:51:31;;;;;;;9.70;7.37;;;18.40;99.90;;;;;;5031835;28;20970;-74
2021/08/13 02:53:58;;;;;;;9.57;7.20;;;18.40;99.90;;;;;;5031665;28;20468;-74
2021/08/13 02:56:28;;;;;;;8.30;6.97;;;18.30;99.90;;;;;;5032160;28;20483;-73
2021/08/13 02:59:01;;;;;;;8.13;6.50;;;18.30;99.90;;;;;;5031269;28;20460;-73
2021/08/13 03:01:30;;;;;;;7.80;6.60;;;18.30;99.90;;;;;;5031534;28;20487;-74
2021/08/13 03:03:57;;;;;;;8.87;7.23;;;18.40;99.90;;;;;;5031467;28;20464;-74
2021/08/13 03:06:29;;;;;;;8.97;7.70;;;18.30;99.90;;;;;;5031268;28;21198;-74
2021/08/13 03:08:57;;;;;;;7.57;6.87;;;18.40;99.90;;;;;;5030492;28;20475;-73
2021/08/13 03:11:24;;;;;;;7.73;6.70;;;18.40;99.90;;;;;;5043151;28;20482;-73
2021/08/13 03:13:51;;;;;;;7.67;6.97;;;18.40;99.90;;;;;;5048509;28;20470;-74
2021/08/13 03:16:19;;;;;;;7.10;6.23;;;18.40;99.90;;;;;;5030676;28;20480;-74
2021/08/13 03:18:47;;;;;;;8.40;7.50;;;18.40;99.90;;;;;;5030782;28;20468;-73
2021/08/13 03:21:14;;;;;;;9.80;7.50;;;18.40;99.90;;;;;;5030287;28;20469;-73
2021/08/13 03:23:42;;;;;;;8.17;7.33;;;18.40;99.90;;;;;;5030876;28;20838;-74
2021/08/13 03:26:09;;;;;;;7.00;6.30;;;18.50;99.90;;;;;;5030653;28;20480;-73
2021/08/13 03:28:36;;;;;;;9.17;8.13;;;18.60;99.90;;;;;;5030318;28;20551;-74
2021/08/13 03:31:03;;;;;;;9.40;7.60;;;18.50;99.90;;;;;;5030819;28;20464;-73
2021/08/13 03:33:32;;;;;;;8.40;7.60;;;18.60;99.90;;;;;;5030887;28;20459;-74
2021/08/13 03:35:59;;;;;;;9.47;8.57;;;18.70;99.90;;;;;;5030285;28;20996;-74
2021/08/13 03:38:26;;;;;;;10.27;7.70;;;18.70;99.90;;;;;;5030307;28;20475;-73
2021/08/13 03:40:53;;;;;;;8.47;7.63;;;18.70;99.90;;;;;;5030506;28;20464;-74
2021/08/13 03:43:19;;;;;;;8.73;7.87;;;18.70;99.90;;;;;;5030185;28;20492;-74
2021/08/13 03:45:46;;;;;;;11.33;7.30;;;18.70;99.90;;;;;;5030512;28;20839;-74
2021/08/13 03:48:13;;;;;;;11.93;8.30;;;18.80;99.90;;;;;;5029539;28;20893;-73
2021/08/13 03:50:41;;;;;;;7.37;6.63;;;18.80;99.90;;;;;;5030733;28;20464;-74
2021/08/13 03:53:08;;;;;;;8.20;7.40;;;18.80;99.90;;;;;;5029953;28;20456;-74
2021/08/13 03:55:34;;;;;;;8.03;7.23;;;18.80;99.90;;;;;;5030663;28;20938;-74
2021/08/13 03:58:01;;;;;;;8.53;7.70;;;18.90;99.90;;;;;;5029726;28;20582;-74
2021/08/13 04:00:28;;;;;;;8.07;7.10;;;18.80;99.90;;;;;;5030080;28;20948;-74
2021/08/13 04:02:54;;;;;;;8.70;7.70;;;18.90;99.90;;;;;;5030245;28;20499;-73
2021/08/13 04:05:21;;;;;;;8.47;7.67;;;18.90;99.90;;;;;;5029306;28;20471;-74
2021/08/13 04:07:49;;;;;;;8.53;7.37;;;18.90;99.90;;;;;;5029456;28;20476;-73
2021/08/13 04:10:16;;;;;;;9.43;7.80;;;18.90;99.90;;;;;;5029746;28;20471;-74
2021/08/13 04:12:43;;;;;;;7.87;7.07;;;18.90;99.90;;;;;;5030253;28;20947;-74
2021/08/13 04:15:10;;;;;;;11.07;7.90;;;19.00;99.90;;;;;;5029937;28;20487;-74
2021/08/13 04:17:36;;;;;;;8.27;7.47;;;19.00;99.90;;;;;;5029595;28;20464;-74
2021/08/13 04:20:04;;;;;;;8.87;7.10;;;19.00;99.90;;;;;;5029361;28;20460;-74
2021/08/13 04:22:30;;;;;;;7.93;7.10;;;19.10;99.90;;;;;;5029477;28;20839;-74
2021/08/13 04:24:58;;;;;;;8.80;8.00;;;19.10;99.90;;;;;;5028965;28;20488;-74
2021/08/13 04:27:25;;;;;;;8.70;7.80;;;19.10;99.90;;;;;;5029451;28;21005;-74
2021/08/13 04:29:52;;;;;;;8.20;7.40;;;19.10;99.90;;;;;;5029780;28;20467;-74
2021/08/13 04:32:19;;;;;;;10.00;8.37;;;19.00;99.90;;;;;;5029740;28;21211;-74
2021/08/13 04:34:45;;;;;;;7.67;6.97;;;19.00;99.90;;;;;;5029648;28;20591;-73
2021/08/13 04:37:12;;;;;;;9.10;8.17;;;19.00;99.90;;;;;;5029353;28;20491;-74
2021/08/13 04:39:39;;;;;;;7.87;6.87;;;19.00;99.90;;;;;;5030251;28;20956;-74
2021/08/13 04:42:07;;;;;;;8.57;7.70;;;19.00;99.90;;;;;;5029443;28;21203;-74
2021/08/13 04:44:33;;;;;;;8.47;7.60;;;19.10;99.90;;;;;;5029856;28;20472;-74
2021/08/13 04:47:00;;;;;;;8.87;7.60;;;19.10;99.90;;;;;;5029199;28;20488;-74
2021/08/13 04:49:27;;;;;;;8.87;8.03;;;19.10;99.90;;;;;;5029263;28;20471;-73
2021/08/13 04:51:54;;;;;;;8.47;7.67;;;19.10;99.90;;;;;;5029310;28;20464;-73
2021/08/13 04:54:21;;;;;;;7.40;6.70;;;19.10;99.90;;;;;;5029304;28;20464;-73
2021/08/13 04:56:47;;;;;;;9.53;7.60;;;19.10;99.90;;;;;;5029712;28;20480;-73
2021/08/13 04:59:15;;;;;;;8.07;7.27;;;19.10;99.90;;;;;;5028718;28;20467;-73
2021/08/13 05:01:42;;;;;;;8.93;8.07;;;19.10;99.90;;;;;;5030220;28;20464;-72
2021/08/13 05:04:10;;;;;;;8.50;7.70;;;19.10;99.90;;;;;;5028362;28;20511;-72
2021/08/13 05:06:37;;;;;;;9.57;8.57;;;19.10;99.90;;;;;;5029691;28;21008;-72
2021/08/13 05:09:03;;;;;;;8.90;8.00;;;19.10;99.90;;;;;;5028769;28;20475;-73
2021/08/13 05:11:30;;;;;;;8.80;7.60;;;19.10;99.90;;;;;;5029150;28;20469;-73
2021/08/13 05:13:57;;;;;;;9.33;8.43;;;19.10;99.90;;;;;;5028448;28;20461;-73
2021/08/13 05:16:25;;;;;;;9.33;8.43;;;19.10;99.90;;;;;;5026312;28;20483;-73
2021/08/13 05:18:51;;;;;;;9.07;8.17;;;19.10;99.90;;;;;;5027500;28;20499;-73
2021/08/13 05:21:18;;;;;;;8.50;7.27;;;19.10;99.90;;;;;;5027836;28;20483;-73
2021/08/13 05:23:45;;;;;;;8.93;7.80;;;19.10;99.90;;;;;;5029215;28;20837;-73
2021/08/13 05:26:11;;;;;;;7.97;7.17;;;19.10;99.90;;;;;;5029074;28;20484;-73
2021/08/13 05:28:38;;;;;;;8.37;7.57;;;19.10;99.90;;;;;;5028359;28;20999;-73
2021/08/13 05:31:05;;;;;;;8.83;7.93;;;19.20;99.90;;;;;;5028745;28;20510;-73
2021/08/13 05:33:33;;;;;;;8.47;7.60;;;19.20;99.90;;;;;;5028762;28;20506;-74
2021/08/13 05:36:00;;;;;;;10.20;8.33;;;19.20;99.90;;;;;;5028854;28;20829;-75
2021/08/13 05:38:26;;;;;;;9.43;7.90;;;19.10;99.90;;;;;;5028308;28;20467;-73
2021/08/13 05:40:53;;;;;;;9.17;8.37;;;19.20;99.90;;;;;;5028782;28;21054;-73
2021/08/13 05:43:20;;;;;;;7.90;7.10;;;19.20;99.90;;;;;;5028551;28;20488;-73
2021/08/13 05:45:46;;;;;;;8.77;7.87;;;19.30;99.90;;;;;;5028642;28;20476;-74
2021/08/13 05:48:13;;;;;;;7.80;7.10;;;19.30;99.90;;;;;;5028310;28;20456;-75
2021/08/13 05:50:41;;;;;;;8.30;7.50;;;19.40;99.90;;;;;;5026849;28;20960;-73
2021/08/13 05:53:08;;;;;;;8.63;7.73;;;19.40;99.90;;;;;;5028323;28;20483;-75
2021/08/13 05:55:34;;;;;;;11.10;8.20;;;19.50;99.90;;;;;;5028517;28;21018;-74
2021/08/13 05:58:01;;;;;;;8.73;7.87;;;19.50;99.90;;;;;;5027810;28;20518;-74
2021/08/13 06:00:28;;;;;;;9.23;8.00;;;19.60;99.90;;;;;;5028602;28;20479;-74
2021/08/13 06:02:58;;;;;;;9.37;8.30;;;19.70;99.90;;;;;;5028405;28;20487;-74
2021/08/13 06:05:25;;;;;;;9.33;8.43;;;19.70;99.90;;;;;;5028453;28;20488;-74
2021/08/13 06:07:53;;;;;;;8.50;7.70;;;19.70;99.90;;;;;;5027560;28;20483;-74
2021/08/13 06:10:21;;;;;;;8.10;6.93;;;19.80;99.90;;;;;;5028028;28;20881;-74
2021/08/13 06:12:49;;;;;;;10.10;8.50;;;19.80;99.90;;;;;;5028244;28;20467;-75
2021/08/13 06:15:16;;;;;;;9.60;8.20;;;19.90;99.90;;;;;;5028132;28;20467;-74
2021/08/13 06:17:44;;;;;;;9.50;8.47;;;19.90;99.90;;;;;;5027672;28;20456;-75
2021/08/13 06:20:12;;;;;;;9.10;8.07;;;20.00;99.90;;;;;;5036011;28;20467;-75
2021/08/13 06:22:39;;;;;;;15.00;8.40;;;20.10;99.90;;;;;;5048451;28;20483;-74
2021/08/13 06:25:08;;;;;;;8.80;7.20;;;20.10;99.90;;;;;;5048265;28;20470;-74
2021/08/13 06:27:39;;;;;;;8.80;7.70;;;20.30;99.90;;;;;;5039587;28;20460;-75
2021/08/13 06:30:07;;;;;;;9.90;7.67;;;20.40;99.90;;;;;;5028594;28;20465;-75
2021/08/13 06:32:33;;;;;;;10.80;7.47;;;20.50;99.90;;;;;;5028065;28;20463;-75
2021/08/13 06:35:00;;;;;;;9.23;7.77;;;20.50;99.90;;;;;;5028193;28;20968;-75
2021/08/13 06:37:27;;;;;;;9.17;7.90;;;20.60;99.90;;;;;;5027626;28;20484;-75
2021/08/13 06:39:53;;;;;;;9.03;8.13;;;20.70;99.90;;;;;;5028354;28;20971;-75
2021/08/13 06:42:21;;;;;;;9.30;8.40;;;20.80;99.90;;;;;;5028183;28;20468;-74
2021/08/13 06:44:49;;;;;;;8.87;7.97;;;20.80;99.90;;;;;;5030375;28;20944;-75
2021/08/13 06:47:16;;;;;;;8.60;7.53;;;20.90;99.90;;;;;;5031617;28;20476;-75
2021/08/13 06:49:43;;;;;;;8.67;7.87;;;21.00;99.90;;;;;;5031479;28;20467;-75
2021/08/13 06:52:10;;;;;;;8.30;7.40;;;21.10;99.90;;;;;;5031784;28;20463;-74
2021/08/13 06:54:37;;;;;;;13.73;8.70;;;21.10;99.90;;;;;;5031940;28;20459;-74
2021/08/13 06:57:04;;;;;;;8.83;7.93;;;21.30;99.90;;;;;;5025952;28;20484;-74
2021/08/13 06:59:32;;;;;;;8.80;8.00;;;21.40;99.90;;;;;;5030500;28;20475;-74
2021/08/13 07:01:58;;;;;;;8.40;7.00;;;21.50;99.90;;;;;;5026514;28;20494;-74
2021/08/13 07:04:26;;;;;;;10.07;7.33;;;21.60;99.90;;;;;;5028658;28;20496;-73
2021/08/13 07:06:53;;;;;;;7.33;6.40;;;21.70;99.90;;;;;;5029097;28;20984;-72
2021/08/13 07:09:21;;;;;;;6.60;6.10;;;21.80;99.90;;;;;;5029017;28;20468;-71
2021/08/13 07:11:48;;;;;;;7.13;6.33;;;21.90;99.90;;;;;;5028325;28;21007;-71
2021/08/13 07:14:16;;;;;;;7.23;6.60;;;22.00;99.90;;;;;;5028872;28;20460;-73
2021/08/13 07:16:44;;;;;;;6.50;5.63;;;22.20;99.90;;;;;;5029162;28;20477;-72
2021/08/13 07:19:12;;;;;;;6.10;5.50;;;22.40;99.90;;;;;;5028755;28;20479;-72
2021/08/13 07:21:39;;;;;;;6.87;6.17;;;22.50;99.90;;;;;;5028014;28;20468;-72
2021/08/13 07:24:06;;;;;;;8.70;6.30;;;22.60;99.90;;;;;;5028692;28;20881;-71
2021/08/13 07:26:34;;;;;;;6.70;5.73;;;22.60;99.90;;;;;;5028832;28;20484;-71
2021/08/13 07:29:01;;;;;;;10.20;6.20;;;22.70;99.90;;;;;;5028043;28;20496;-72
2021/08/13 07:31:29;;;;;;;5.60;5.00;;;22.90;99.90;;;;;;5029267;28;20452;-72
2021/08/13 07:33:57;;;;;;;6.00;5.40;;;22.90;99.90;;;;;;5028401;28;20456;-71
2021/08/13 07:36:26;;;;;;;8.60;4.90;;;23.00;99.90;;;;;;5031708;28;20514;-71
2021/08/13 07:38:53;;;;;;;5.10;4.67;;;23.10;99.90;;;;;;5047885;28;20466;-72
2021/08/13 07:41:21;;;;;;;6.70;5.13;;;23.10;99.90;;;;;;5048739;28;20460;-72
2021/08/13 07:43:48;;;;;;;6.20;5.60;;;23.20;99.90;;;;;;5042776;28;20519;-72
2021/08/13 07:46:16;;;;;;;6.90;5.40;;;23.30;99.90;;;;;;5028765;28;20490;-73
2021/08/13 07:48:43;;;;;;;8.90;5.07;;;23.40;99.90;;;;;;5028436;28;20456;-72
2021/08/13 07:51:12;;;;;;;7.17;5.37;;;23.50;99.90;;;;;;5027411;28;20457;-72
2021/08/13 07:53:39;;;;;;;5.73;4.50;;;23.60;99.90;;;;;;5027933;28;20840;-72
2021/08/13 07:56:07;;;;;;;6.00;5.10;;;23.80;99.90;;;;;;5028415;28;20484;-72
2021/08/13 07:58:34;;;;;;;6.73;4.63;;;23.90;99.90;;;;;;5027867;28;20463;-72
2021/08/13 08:01:02;;;;;;;6.60;4.60;;;24.00;99.90;;;;;;5028797;28;20466;-72
2021/08/13 08:03:29;;;;;;;5.90;4.77;;;24.00;99.90;;;;;;5028327;28;20484;-72
2021/08/13 08:05:56;;;;;;;6.17;5.03;;;24.10;99.90;;;;;;5028836;28;20484;-72
2021/08/13 08:08:25;;;;;;;5.70;4.40;;;24.20;99.90;;;;;;5030357;28;20465;-72
2021/08/13 08:10:52;;;;;;;5.57;4.67;;;24.30;99.90;;;;;;5028508;28;20899;-72
2021/08/13 08:13:18;;;;;;;5.90;4.80;;;24.40;99.90;;;;;;5028135;28;20464;-72
2021/08/13 08:15:46;;;;;;;6.30;4.60;;;24.50;99.90;;;;;;5027443;28;20844;-75
2021/08/13 08:18:13;;;;;;;6.53;4.37;;;24.50;99.90;;;;;;5029818;28;20468;-74
2021/08/13 08:20:40;;;;;;;9.00;4.50;;;24.60;99.90;;;;;;5028128;28;20819;-73
2021/08/13 08:23:07;;;;;;;9.67;4.37;;;24.70;99.90;;;;;;5027732;28;20504;-72
2021/08/13 08:25:35;;;;;;;5.13;4.63;;;24.80;99.90;;;;;;5025915;28;20484;-72
2021/08/13 08:28:02;;;;;;;6.90;4.80;;;24.90;99.90;;;;;;5026816;28;20468;-72
2021/08/13 08:30:29;;;;;;;7.87;5.10;;;25.00;99.90;;;;;;5028168;28;20474;-73
2021/08/13 08:32:55;;;;;;;8.67;5.07;;;25.10;99.90;;;;;;5027177;28;20472;-73
2021/08/13 08:35:23;;;;;;;10.90;4.40;;;25.10;99.90;;;;;;5025632;28;20464;-73
2021/08/13 08:37:51;;;;;;;5.90;4.37;;;25.20;99.90;;;;;;5025955;28;20549;-73
2021/08/13 08:40:25;;;;;;;7.00;5.00;;;25.40;99.90;;;;;;5027007;28;20464;-73
2021/08/13 08:42:56;;;;;;;7.33;5.23;;;25.40;99.90;;;;;;5026209;28;20468;-75
2021/08/13 08:45:23;;;;;;;4.70;4.10;;;25.50;99.90;;;;;;5026192;28;20873;-73
2021/08/13 08:47:53;;;;;;;7.47;4.70;;;25.50;99.90;;;;;;5026088;28;20464;-74
2021/08/13 08:50:21;;;;;;;5.93;4.80;;;25.50;99.90;;;;;;5026883;28;21120;-73
2021/08/13 08:52:49;;;;;;;7.37;4.80;;;25.60;99.90;;;;;;5025633;28;20464;-74
2021/08/13 08:55:15;;;;;;;6.90;5.40;;;25.60;99.90;;;;;;5026306;28;20546;-74
2021/08/13 08:57:45;;;;;;;6.30;5.00;;;25.60;99.90;;;;;;5025104;28;20461;-74
2021/08/13 09:00:14;;;;;;;7.27;4.60;;;25.80;99.90;;;;;;5026267;28;20459;-73
2021/08/13 09:02:44;;;;;;;7.37;5.37;;;25.80;99.90;;;;;;5025617;28;20963;-74
2021/08/13 09:05:11;;;;;;;7.40;5.63;;;25.80;99.90;;;;;;5025552;28;21074;-74
2021/08/13 09:07:38;;;;;;;7.03;4.63;;;26.00;99.90;;;;;;5026030;28;20464;-74
2021/08/13 09:10:06;;;;;;;6.40;5.70;;;26.10;99.90;;;;;;5027599;28;20831;-74
2021/08/13 09:12:33;;;;;;;6.27;4.80;;;26.20;99.90;;;;;;5046117;28;20864;-74
2021/08/13 09:15:00;;;;;;;8.83;5.07;;;26.20;99.90;;;;;;5037383;28;20959;-73
2021/08/13 09:17:32;;;;;;;6.50;5.50;;;26.30;99.90;;;;;;5026189;28;20484;-74
2021/08/13 09:19:59;;;;;;;7.77;5.67;;;26.40;99.90;;;;;;5026094;28;20474;-74
2021/08/13 09:22:26;;;;;;;7.73;5.60;;;26.40;99.90;;;;;;5025044;28;20726;-74
2021/08/13 09:24:55;;;;;;;7.60;5.90;;;26.50;99.90;;;;;;5025651;28;20585;-74
2021/08/13 09:27:25;;;;;;;8.23;5.20;;;26.60;99.90;;;;;;5025754;28;20487;-72
2021/08/13 09:30:13;;;;;;;6.50;5.63;;;26.70;99.90;;;;;;5026508;28;20637;-72
2021/08/13 09:32:44;;;;;;;7.17;5.50;;;26.80;99.90;;;;;;5026170;28;20502;-71
2021/08/13 09:35:15;;;;;;;5.77;5.20;;;26.80;99.90;;;;;;5026528;28;20471;-72
2021/08/13 09:37:49;;;;;;;6.73;4.90;;;26.90;99.90;;;;;;5026209;28;20474;-72
2021/08/13 09:40:16;;;;;;;7.70;5.97;;;27.00;99.90;;;;;;5039919;23;20531;-70
2021/08/13 09:42:43;;;;;;;7.83;6.30;;;27.00;99.90;;;;;;5025562;28;20946;-70
2021/08/13 09:45:11;;;;;;;10.53;5.33;;;27.00;99.90;;;;;;5025689;28;20492;-70
2021/08/13 09:47:45;;;;;;;6.47;4.80;;;27.00;99.90;;;;;;5025610;28;20465;-70
2021/08/13 09:50:16;;;;;;;7.90;5.97;;;27.10;99.90;;;;;;5024795;28;20462;-70
2021/08/13 09:53:04;;;;;;;8.87;4.97;;;27.20;99.90;;;;;;5025597;28;20554;-70
2021/08/13 09:55:31;;;;;;;5.90;5.30;;;27.30;99.90;;;;;;5025735;28;20476;-71
2021/08/13 09:57:58;;;;;;;6.63;5.00;;;27.40;99.90;;;;;;5025347;28;20465;-71
2021/08/13 10:00:25;;;;;;;6.10;5.50;;;27.50;99.90;;;;;;5026414;28;20464;-70
2021/08/13 10:03:04;;;;;;;8.20;5.43;;;27.60;99.90;;;;;;5025491;28;20461;-70
2021/08/13 10:05:31;;;;;;;7.37;5.63;;;27.70;99.90;;;;;;5026391;28;20617;-70
2021/08/13 10:08:00;;;;;;;7.67;5.67;;;27.80;99.90;;;;;;5037172;28;20460;-70
2021/08/13 10:10:28;;;;;;;9.77;5.83;;;27.90;99.90;;;;;;5045945;28;21023;-70
2021/08/13 10:12:58;;;;;;;7.70;5.87;;;27.90;99.90;;;;;;5044695;28;20503;-70
2021/08/13 10:15:31;;;;;;;8.70;6.07;;;27.90;99.90;;;;;;5045894;28;20486;-71
2021/08/13 10:18:01;;;;;;;7.10;5.73;;;27.90;99.90;;;;;;5044215;28;20462;-70
2021/08/13 10:20:29;;;;;;;6.10;5.50;;;28.10;99.90;;;;;;5049156;28;20532;-70
2021/08/13 10:22:57;;;;;;;6.37;5.70;;;28.20;99.90;;;;;;5048891;28;20464;-71
2021/08/13 10:25:25;;;;;;;6.67;5.60;;;28.20;99.90;;;;;;5048803;28;20981;-70
2021/08/13 10:27:53;;;;;;;8.23;5.80;;;28.20;99.90;;;;;;5048455;28;20501;-70
2021/08/13 10:30:21;;;;;;;6.57;5.13;;;28.10;99.90;;;;;;5049352;28;20480;-70
2021/08/13 10:32:51;;;;;;;5.43;4.93;;;27.90;99.90;;;;;;5048718;28;20471;-70
2021/08/13 10:35:20;;;;;;;6.53;5.67;;;27.90;99.90;;;;;;5049052;28;20456;-70
2021/08/13 10:37:47;;;;;;;6.57;5.87;;;27.80;99.90;;;;;;5048438;28;20461;-70
2021/08/13 10:40:18;;;;;;;6.47;5.87;;;27.80;99.90;;;;;;5048384;28;20943;-71
2021/08/13 10:42:46;;;;;;;8.27;5.90;;;27.70;99.90;;;;;;5049285;28;20555;-70
2021/08/13 10:45:21;;;;;;;6.30;5.60;;;27.70;99.90;;;;;;5044383;28;20493;-71
2021/08/13 10:47:53;;;;;;;6.30;5.70;;;27.80;99.90;;;;;;5027010;28;20456;-70
2021/08/13 10:50:22;;;;;;;10.20;6.47;;;27.90;99.90;;;;;;5039028;28;20470;-71
2021/08/13 10:52:49;;;;;;;9.23;6.93;;;28.10;99.90;;;;;;5047959;28;20460;-70
2021/08/13 10:55:40;;;;;;;12.60;7.30;;;28.10;99.90;;;;;;5048463;28;20980;-70
2021/08/13 10:58:07;;;;;;;9.20;6.87;;;28.00;99.90;;;;;;5047306;28;20465;-70
2021/08/13 11:01:05;;;;;;;9.40;6.57;;;27.90;99.90;;;;;;5048782;28;20456;-70
2021/08/13 11:03:32;;;;;;;7.20;6.50;;;27.90;99.90;;;;;;5047225;28;20469;-70
2021/08/13 11:06:01;;;;;;;7.60;6.77;;;27.70;99.90;;;;;;5046983;28;20492;-70
2021/08/13 11:08:56;;;;;;;7.83;6.80;;;27.50;99.90;;;;;;5028068;28;20476;-70
2021/08/13 11:11:24;;;;;;;8.40;7.47;;;27.30;99.90;;;;;;5040047;28;20838;-70
2021/08/13 11:13:50;;;;;;;8.43;7.60;;;27.10;99.90;;;;;;5046292;28;20472;-71
2021/08/13 11:16:37;;;;;;;7.57;6.80;;;27.00;99.90;;;;;;5045969;28;20488;-70
2021/08/13 11:19:07;;;;;;;7.97;7.17;;;26.90;99.90;;;;;;5047646;28;20457;-70
2021/08/13 11:21:37;;;;;;;8.10;6.70;;;27.00;99.90;;;;;;5048512;28;20835;-70
2021/08/13 11:24:07;;;;;;;11.07;7.10;;;27.10;99.90;;;;;;5047718;28;20453;-70
2021/08/13 11:27:07;;;;;;;7.60;6.43;;;27.10;99.90;;;;;;5049138;28;20498;-70
2021/08/13 11:29:35;;;;;;;8.77;7.57;;;27.10;99.90;;;;;;5036774;28;20471;-71
2021/08/13 11:32:07;;;;;;;8.10;7.30;;;27.20;99.90;;;;;;5048699;28;20869;-71
2021/08/13 11:34:45;;;;;;;8.27;7.40;;;27.30;99.90;;;;;;5049347;28;20465;-71
2021/08/13 11:37:44;;;;;;;8.13;7.30;;;27.40;99.90;;;;;;5040871;28;20485;-71
2021/08/13 11:40:50;;;;;;;10.90;7.27;;;27.50;99.90;;;;;;5028683;28;20478;-71
2021/08/13 11:43:18;;;;;;;7.60;6.80;;;27.70;99.90;;;;;;5029255;28;20612;-71
2021/08/13 11:45:47;;;;;;;9.90;7.73;;;27.90;99.90;;;;;;5029301;28;20485;-71
2021/08/13 11:48:15;;;;;;;8.43;7.13;;;27.90;99.90;;;;;;5028812;28;20905;-70
2021/08/13 11:50:42;;;;;;;10.23;6.67;;;28.00;99.90;;;;;;5029336;28;20464;-70
2021/08/13 11:53:10;;;;;;;8.43;7.73;;;28.00;99.90;;;;;;5027576;28;20470;-71
2021/08/13 11:55:38;;;;;;;9.53;8.60;;;28.20;99.90;;;;;;5028602;28;20849;-70
2021/08/13 11:58:07;;;;;;;9.13;7.70;;;28.20;99.90;;;;;;5027195;28;20966;-70
2021/08/13 12:00:36;;;;;;;8.33;7.53;;;28.40;99.90;;;;;;5028598;28;20828;-70
2021/08/13 12:03:05;;;;;;;8.80;8.00;;;28.60;99.90;;;;;;5027505;28;20890;-70
2021/08/13 12:05:34;;;;;;;8.03;7.33;;;28.70;99.90;;;;;;5026208;28;20567;-70
2021/08/13 12:08:03;;;;;;;8.13;7.33;;;28.60;99.90;;;;;;5026308;28;20478;-70
2021/08/13 12:10:32;;;;;;;9.73;8.83;;;28.40;99.90;;;;;;5027195;28;20474;-71
2021/08/13 12:13:06;;;;;;;9.90;7.47;;;28.30;99.90;;;;;;5026593;28;20923;-70
2021/08/13 12:15:35;;;;;;;8.30;7.50;;;28.10;99.90;;;;;;5027776;28;21096;-70
2021/08/13 12:18:03;;;;;;;7.93;7.13;;;28.10;99.90;;;;;;5026027;28;20466;-70
2021/08/13 12:20:31;;;;;;;8.97;7.10;;;28.20;99.90;;;;;;5027518;28;20487;-71
2021/08/13 12:23:01;;;;;;;7.70;6.90;;;28.40;99.90;;;;;;5025758;28;20972;-70
2021/08/13 12:25:33;;;;;;;8.00;7.20;;;28.40;99.90;;;;;;5026843;28;21125;-71
2021/08/13 12:28:01;;;;;;;7.90;7.20;;;28.60;99.90;;;;;;5035232;28;20520;-71
2021/08/13 12:30:28;;;;;;;11.50;8.93;;;28.70;99.90;;;;;;5025892;28;20471;-70
2021/08/13 12:32:56;;;;;;;8.30;7.23;;;28.90;99.90;;;;;;5025929;28;20466;-70
2021/08/13 12:35:23;;;;;;;9.07;7.50;;;28.90;99.90;;;;;;5033373;28;20837;-70
2021/08/13 12:37:50;;;;;;;8.60;7.80;;;28.80;99.90;;;;;;5035585;28;20833;-70
2021/08/13 12:40:19;;;;;;;8.60;7.40;;;28.70;99.90;;;;;;5028439;28;20496;-70
2021/08/13 12:42:50;;;;;;;7.50;6.80;;;28.60;99.90;;;;;;5023637;28;20470;-70
2021/08/13 12:45:20;;;;;;;10.93;7.83;;;28.50;99.90;;;;;;5025339;28;20486;-70
2021/08/13 12:47:50;;;;;;;7.83;7.03;;;28.50;99.90;;;;;;5024017;28;20546;-70
2021/08/13 12:50:19;;;;;;;8.37;7.53;;;28.40;99.90;;;;;;5024716;28;20460;-70
2021/08/13 12:53:01;;;;;;;7.80;7.03;;;28.20;99.90;;;;;;5024502;28;20465;-70
2021/08/13 12:55:35;;;;;;;8.23;7.07;;;28.00;99.90;;;;;;5025044;28;21030;-70